Wedell Foss — WRB3696 — position and weather

sailwx.info

Track history (hours):
 
Tides and Currents Weather Stations Pressure Air Temp Water Temp Dewpoint Dewpoint Depression Visibility Wind Speed Wind Dir Waves Ship Positions

Wedell Foss

Owner: FOSS MARITIME COMPANY, SEATTLE, WA. More information available from US FCC via Universal Licensing System and Coast Guard Vessel Documentation Center.

Last reported at 2018-Feb-25 19:59 UTC. Time now 2018-Feb-25 20:02 UTC.
Position N 47°18' W 122°26'.

Length 34 m; draft 6.4 m.

Type: Towing. MMSI: 366976920.

Date/timePositionNaut miles runAvg speedWind from/ knotsBaromVisibWave heightAir tempDewpointWater temp
2018-Feb-25 19:59N 47°18' W 122°26'0 0.3
2018-Feb-25 19:30N 47°18' W 122°26'0 0.1
2018-Feb-25 15:18N 47°17' W 122°25'1 1.9
2018-Feb-25 15:00N 47°18' W 122°26'0 0.9
2018-Feb-25 14:29N 47°17' W 122°25'1 1.7
2018-Feb-25 14:00N 47°17' W 122°25'1 2.3
2018-Feb-25 13:30N 47°16' W 122°26'0 0.0
2018-Feb-25 13:00N 47°16' W 122°26'0 0.0
2018-Feb-25 12:27N 47°16' W 122°26'0 0.0
2018-Feb-25 11:59N 47°16' W 122°26'0 0.0
2018-Feb-25 11:29N 47°16' W 122°26'0 0.0
2018-Feb-25 11:00N 47°16' W 122°26'0 0.0
2018-Feb-25 10:30N 47°16' W 122°26'0 0.0
2018-Feb-25 10:00N 47°16' W 122°26'0 0.0
2018-Feb-25 09:30N 47°16' W 122°26'0 0.0
2018-Feb-25 09:00N 47°16' W 122°26'0 0.2
2018-Feb-25 08:29N 47°16' W 122°26'4 7.7
2018-Feb-25 08:00N 47°19' W 122°28'4 8.2
2018-Feb-25 07:30N 47°22' W 122°23'4 7.9
2018-Feb-25 07:00N 47°26' W 122°23'4 8.9
2018-Feb-25 06:30N 47°31' W 122°24'4 8.7
2018-Feb-25 06:00N 47°35' W 122°25'3 5.3
2018-Feb-25 05:30N 47°35' W 122°22'1 2.2
2018-Feb-25 05:00N 47°34' W 122°21'1 1.8
2018-Feb-25 04:30N 47°33' W 122°21'0 0.9
2018-Feb-25 03:59N 47°33' W 122°20'0 0.0
2018-Feb-25 03:30N 47°33' W 122°20'0 0.1
2018-Feb-25 03:00N 47°33' W 122°20'0 0.2
2018-Feb-25 02:30N 47°33' W 122°20'4 7.1
2018-Feb-25 02:00N 47°36' W 122°23'4 8.3
2018-Feb-25 01:30N 47°32' W 122°25'510.1
2018-Feb-25 01:00N 47°27' W 122°24'5 9.7
2018-Feb-25 00:30N 47°23' W 122°21'510.0
2018-Feb-25 00:00N 47°19' W 122°27'4 7.2
2018-Feb-24 23:28N 47°16' W 122°24'1 1.5
2018-Feb-24 23:00N 47°15' W 122°23'1 2.7
2018-Feb-24 22:27N 47°16' W 122°24'2 4.1
2018-Feb-24 22:00N 47°18' W 122°26'1 2.9
2018-Feb-24 21:30N 47°17' W 122°25'1 2.2
2018-Feb-24 20:59N 47°16' W 122°26'0 0.0
2018-Feb-24 20:30N 47°16' W 122°26'0 0.0
2018-Feb-24 19:58N 47°16' W 122°26'0 0.0
2018-Feb-24 19:30N 47°16' W 122°26'0 0.0
2018-Feb-24 19:00N 47°16' W 122°26'0 0.0
2018-Feb-24 18:30N 47°16' W 122°26'0 0.0
2018-Feb-24 18:00N 47°16' W 122°26'0 0.0
2018-Feb-24 17:30N 47°16' W 122°26'0 0.0
2018-Feb-24 17:00N 47°16' W 122°26'0 0.0
2018-Feb-24 16:30N 47°16' W 122°26'0 0.0
2018-Feb-24 16:00N 47°16' W 122°26'0 0.0
2018-Feb-24 15:30N 47°16' W 122°26'0 0.0
2018-Feb-24 15:00N 47°16' W 122°26'0 0.0
2018-Feb-24 14:30N 47°16' W 122°26'0 0.0
2018-Feb-24 14:00N 47°16' W 122°26'0 0.0
2018-Feb-24 13:30N 47°16' W 122°26'0 0.0
2018-Feb-24 13:00N 47°16' W 122°26'0 0.0
2018-Feb-24 12:30N 47°16' W 122°26'0 0.0
2018-Feb-24 12:00N 47°16' W 122°26'1 1.1
2018-Feb-24 11:30N 47°16' W 122°27'0 0.7
2018-Feb-24 11:00N 47°16' W 122°27'0 0.8
2018-Feb-24 10:30N 47°16' W 122°27'0 0.2
2018-Feb-24 10:00N 47°16' W 122°26'0 0.8
2018-Feb-24 09:30N 47°16' W 122°26'1 2.4
2018-Feb-24 09:00N 47°17' W 122°24'0 0.2
2018-Feb-24 08:30N 47°17' W 122°25'0 0.0
2018-Feb-24 07:55N 47°17' W 122°25'0 0.0
2018-Feb-24 07:20N 47°17' W 122°25'1 1.8
2018-Feb-24 06:59N 47°17' W 122°25'0 0.9
2018-Feb-24 06:30N 47°16' W 122°25'0 0.1
2018-Feb-24 05:45N 47°16' W 122°25'1 3.5
2018-Feb-24 05:30N 47°16' W 122°26'1 1.1
2018-Feb-24 05:00N 47°16' W 122°26'0 0.0
2018-Feb-24 04:30N 47°16' W 122°26'0 0.0
2018-Feb-24 04:00N 47°16' W 122°26'0 0.0
2018-Feb-24 03:29N 47°16' W 122°26'0 0.0
2018-Feb-24 03:00N 47°16' W 122°26'0 0.0
2018-Feb-24 02:29N 47°16' W 122°26'0 0.0
2018-Feb-24 01:59N 47°16' W 122°26'1 2.7
2018-Feb-24 01:30N 47°17' W 122°25'2 3.4
2018-Feb-24 01:00N 47°16' W 122°23'2 0.5
2018-Feb-23 21:23N 47°16' W 122°26'0 0.0
2018-Feb-23 20:59N 47°16' W 122°26'0 0.0
2018-Feb-23 20:30N 47°16' W 122°26'0 0.0
2018-Feb-23 19:57N 47°16' W 122°26'0 0.0
2018-Feb-23 19:30N 47°16' W 122°26'0 0.0
2018-Feb-23 18:59N 47°16' W 122°26'0 0.0
2018-Feb-23 18:30N 47°16' W 122°26'0 0.0
2018-Feb-23 18:00N 47°16' W 122°26'0 0.0
2018-Feb-23 17:30N 47°16' W 122°26'0 0.0
2018-Feb-23 17:00N 47°16' W 122°26'0 0.0
2018-Feb-23 16:30N 47°16' W 122°26'0 0.0
2018-Feb-23 15:57N 47°16' W 122°26'0 0.0
2018-Feb-23 15:30N 47°16' W 122°26'0 0.0
2018-Feb-23 15:00N 47°16' W 122°26'0 0.0
2018-Feb-23 14:25N 47°16' W 122°26'0 0.0
2018-Feb-23 13:59N 47°16' W 122°26'0 0.0
2018-Feb-23 13:29N 47°16' W 122°26'0 0.0
2018-Feb-23 12:56N 47°16' W 122°26'1 2.1
2018-Feb-23 12:30N 47°17' W 122°26'2 3.3
2018-Feb-23 12:00N 47°16' W 122°24'1 1.7
2018-Feb-23 11:30N 47°15' W 122°23'0 0.6
2018-Feb-23 10:57N 47°16' W 122°23'0 0.0
2018-Feb-23 09:14N 47°16' W 122°23'1 4.1
2018-Feb-23 08:52N 47°17' W 122°25'1 1.4
2018-Feb-23 08:30N 47°16' W 122°25'0 0.1
2018-Feb-23 08:00N 47°16' W 122°25'1 2.3
2018-Feb-23 07:30N 47°17' W 122°26'1 2.6
2018-Feb-23 06:59N 47°16' W 122°26'0 0.0
2018-Feb-23 06:30N 47°16' W 122°26'0 0.0
2018-Feb-23 05:59N 47°16' W 122°26'0 0.0
2018-Feb-23 05:30N 47°16' W 122°26'0 0.0
2018-Feb-23 04:59N 47°16' W 122°26'0 0.0
2018-Feb-23 04:30N 47°16' W 122°26'0 0.0
2018-Feb-23 04:00N 47°16' W 122°26'0 0.0
2018-Feb-23 03:30N 47°16' W 122°26'0 0.0
2018-Feb-23 03:00N 47°16' W 122°26'1 2.5
2018-Feb-23 02:30N 47°17' W 122°26'1 0.5
2018-Feb-23 01:04N 47°17' W 122°25'1 0.9
2018-Feb-23 00:24N 47°17' W 122°25'1 1.8
2018-Feb-22 23:59N 47°17' W 122°25'1 1.3
2018-Feb-22 23:30N 47°18' W 122°26'0 0.0
2018-Feb-22 22:57N 47°18' W 122°26'1 0.5
2018-Feb-22 21:33N 47°17' W 122°25'0 7.6
2018-Feb-22 21:30N 47°17' W 122°25'1 2.5
2018-Feb-22 20:59N 47°16' W 122°26'0 0.0
2018-Feb-22 20:30N 47°16' W 122°26'0 0.0
2018-Feb-22 20:00N 47°16' W 122°26'0 0.0
2018-Feb-22 19:30N 47°16' W 122°26'0 0.0
2018-Feb-22 19:00N 47°16' W 122°26'0 0.0
2018-Feb-22 18:30N 47°16' W 122°26'0 0.0
2018-Feb-22 17:59N 47°16' W 122°26'0 0.0
2018-Feb-22 17:29N 47°16' W 122°26'0 0.0
2018-Feb-22 17:00N 47°16' W 122°26'0 0.0
2018-Feb-22 16:30N 47°16' W 122°26'0 0.0
2018-Feb-22 16:00N 47°16' W 122°26'0 0.0
2018-Feb-22 15:30N 47°16' W 122°26'0 0.0
2018-Feb-22 15:00N 47°16' W 122°26'0 0.0
2018-Feb-22 14:30N 47°16' W 122°26'0 0.0
2018-Feb-22 14:00N 47°16' W 122°26'0 0.0
2018-Feb-22 13:30N 47°16' W 122°26'0 0.0
2018-Feb-22 13:00N 47°16' W 122°26'0 0.0
2018-Feb-22 12:30N 47°16' W 122°26'0 0.0
2018-Feb-22 12:00N 47°16' W 122°26'0 0.0
2018-Feb-22 11:29N 47°16' W 122°26'0 0.0
2018-Feb-22 11:00N 47°16' W 122°26'0 0.0
2018-Feb-22 10:28N 47°16' W 122°26'1 2.5
2018-Feb-22 09:58N 47°16' W 122°24'0 0.2
2018-Feb-22 09:03N 47°17' W 122°24'0 0.3
2018-Feb-22 08:45N 47°17' W 122°25'0 0.0
2018-Feb-22 08:18N 47°17' W 122°25'0 0.0
2018-Feb-22 08:00N 47°17' W 122°25'0 0.0
2018-Feb-22 07:30N 47°17' W 122°25'1 1.5
2018-Feb-22 07:00N 47°17' W 122°26'1 1.2
2018-Feb-22 06:30N 47°16' W 122°25'0 0.0
2018-Feb-22 03:22N 47°16' W 122°25'1 0.6
2018-Feb-22 02:14N 47°16' W 122°24'1 2.4
2018-Feb-22 01:59N 47°17' W 122°24'1 2.3
2018-Feb-22 01:30N 47°17' W 122°26'1 2.8
2018-Feb-22 01:00N 47°16' W 122°26'0 0.0
2018-Feb-22 00:29N 47°16' W 122°26'0 0.0
2018-Feb-22 00:00N 47°16' W 122°26'0 0.0
2018-Feb-21 23:28N 47°16' W 122°26'0 0.0
2018-Feb-21 22:57N 47°16' W 122°26'2 2.9
2018-Feb-21 22:23N 47°16' W 122°24'1 2.0
2018-Feb-21 21:59N 47°15' W 122°23'1 1.3
2018-Feb-21 21:24N 47°16' W 122°24'1 2.8
2018-Feb-21 20:59N 47°17' W 122°25'1 2.4
2018-Feb-21 20:30N 47°17' W 122°26'2 3.0
2018-Feb-21 20:00N 47°16' W 122°25'0 0.6
2018-Feb-21 19:30N 47°16' W 122°25'1 1.8
2018-Feb-21 19:00N 47°17' W 122°26'1 2.5
2018-Feb-21 18:30N 47°16' W 122°26'0 0.0
2018-Feb-21 18:00N 47°16' W 122°26'0 0.0
2018-Feb-21 17:30N 47°16' W 122°26'0 0.0
2018-Feb-21 17:00N 47°16' W 122°26'0 0.0
2018-Feb-21 16:30N 47°16' W 122°26'0 0.0
2018-Feb-21 15:59N 47°16' W 122°26'0 0.0
2018-Feb-21 15:30N 47°16' W 122°26'0 0.0
2018-Feb-21 15:00N 47°16' W 122°26'0 0.0
2018-Feb-21 14:30N 47°16' W 122°26'0 0.0
2018-Feb-21 14:00N 47°16' W 122°26'0 0.0
2018-Feb-21 13:30N 47°16' W 122°26'0 0.0
2018-Feb-21 13:00N 47°16' W 122°26'0 0.0
2018-Feb-21 12:28N 47°16' W 122°26'0 0.0
2018-Feb-21 12:00N 47°16' W 122°26'0 0.0
2018-Feb-21 11:30N 47°16' W 122°26'0 0.0
2018-Feb-21 11:00N 47°16' W 122°26'0 0.0
2018-Feb-21 10:28N 47°16' W 122°26'0 0.0
2018-Feb-21 10:00N 47°16' W 122°26'0 0.0
2018-Feb-21 09:30N 47°16' W 122°26'0 0.0
2018-Feb-21 08:59N 47°16' W 122°26'0 0.0
2018-Feb-21 08:30N 47°16' W 122°26'0 0.0
2018-Feb-21 07:59N 47°16' W 122°26'0 0.0
2018-Feb-21 07:30N 47°16' W 122°26'0 0.0
2018-Feb-21 07:00N 47°16' W 122°26'0 0.0
2018-Feb-21 06:30N 47°16' W 122°26'0 0.0
2018-Feb-21 06:00N 47°16' W 122°26'0 0.0
2018-Feb-21 05:29N 47°16' W 122°26'0 0.0
2018-Feb-21 05:00N 47°16' W 122°26'0 0.0
2018-Feb-21 04:30N 47°16' W 122°26'0 0.0
2018-Feb-21 04:00N 47°16' W 122°26'0 0.0
2018-Feb-21 03:30N 47°16' W 122°26'0 0.0
2018-Feb-21 03:00N 47°16' W 122°26'0 0.0
2018-Feb-21 02:30N 47°16' W 122°26'0 0.0
2018-Feb-21 02:00N 47°16' W 122°26'0 0.0
2018-Feb-21 01:30N 47°16' W 122°26'0 0.0
2018-Feb-21 01:00N 47°16' W 122°26'0 0.0
2018-Feb-21 00:29N 47°16' W 122°26'0 0.0
2018-Feb-21 00:00N 47°16' W 122°26'0 0.0
2018-Feb-20 23:30N 47°16' W 122°26'0 0.0
2018-Feb-20 23:00N 47°16' W 122°26'0 0.0
2018-Feb-20 22:30N 47°16' W 122°26'0 0.0
2018-Feb-20 22:00N 47°16' W 122°26'0 0.0
2018-Feb-20 21:30N 47°16' W 122°26'0 0.0
2018-Feb-20 21:00N 47°16' W 122°26'0 0.0
2018-Feb-20 20:30N 47°16' W 122°26'0 0.0
2018-Feb-20 20:00N 47°16' W 122°26'0 0.0
2018-Feb-20 19:29N 47°16' W 122°26'0 0.0
2018-Feb-20 19:00N 47°16' W 122°26'0 0.0
2018-Feb-20 18:30N 47°16' W 122°26'0 0.0
2018-Feb-20 18:00N 47°16' W 122°26'0 0.0
2018-Feb-20 17:30N 47°16' W 122°26'2 4.1
2018-Feb-20 17:00N 47°18' W 122°26'1 2.7
2018-Feb-20 16:30N 47°17' W 122°25'0 0.0
2018-Feb-20 16:00N 47°17' W 122°25'0 0.0
2018-Feb-20 15:30N 47°17' W 122°25'1 2.3
2018-Feb-20 15:00N 47°17' W 122°26'2 3.3
2018-Feb-20 14:30N 47°16' W 122°26'0 0.0
2018-Feb-20 14:00N 47°16' W 122°26'0 0.0
2018-Feb-20 13:30N 47°16' W 122°26'1 2.3
2018-Feb-20 13:00N 47°17' W 122°25'1 2.6
2018-Feb-20 12:27N 47°16' W 122°23'0 1.0
2018-Feb-20 11:59N 47°15' W 122°23'3 5.3
2018-Feb-20 11:30N 47°17' W 122°25'1 1.2
2018-Feb-20 11:00N 47°17' W 122°25'0 0.2
2018-Feb-20 10:30N 47°17' W 122°25'1 2.3
2018-Feb-20 09:59N 47°16' W 122°26'0 0.0
2018-Feb-20 09:25N 47°16' W 122°26'0 0.0
2018-Feb-20 08:55N 47°16' W 122°26'0 0.0
2018-Feb-20 08:28N 47°16' W 122°26'0 0.0
2018-Feb-20 07:58N 47°16' W 122°26'0 0.0
2018-Feb-20 07:25N 47°16' W 122°26'0 0.0
2018-Feb-20 06:58N 47°16' W 122°26'0 0.0
2018-Feb-20 06:28N 47°16' W 122°26'0 0.0
2018-Feb-20 05:40N 47°16' W 122°26'0 0.0
2018-Feb-20 05:25N 47°16' W 122°26'0 0.0
2018-Feb-20 04:46N 47°16' W 122°26'0 0.0
2018-Feb-20 04:22N 47°16' W 122°26'0 0.0
2018-Feb-20 03:37N 47°16' W 122°26'0 0.0
2018-Feb-20 03:25N 47°16' W 122°26'0 0.0
2018-Feb-20 02:58N 47°16' W 122°26'0 0.0
2018-Feb-20 02:28N 47°16' W 122°26'0 0.0
2018-Feb-20 01:58N 47°16' W 122°26'0 0.0
2018-Feb-20 01:28N 47°16' W 122°26'0 0.0
2018-Feb-20 00:58N 47°16' W 122°26'0 0.0
2018-Feb-20 00:28N 47°16' W 122°26'0 0.0
2018-Feb-19 23:55N 47°16' W 122°26'0 0.0
2018-Feb-19 23:28N 47°16' W 122°26'0 0.0
2018-Feb-19 22:58N 47°16' W 122°26'0 0.0
2018-Feb-19 22:25N 47°16' W 122°26'0 0.0
2018-Feb-19 21:55N 47°16' W 122°26'0 0.0
2018-Feb-19 21:22N 47°16' W 122°26'0 0.0
2018-Feb-19 20:58N 47°16' W 122°26'0 0.0
2018-Feb-19 20:28N 47°16' W 122°26'0 0.0
2018-Feb-19 19:58N 47°16' W 122°26'0 0.0
2018-Feb-19 19:28N 47°16' W 122°26'0 0.0
2018-Feb-19 18:58N 47°16' W 122°26'0 0.0
2018-Feb-19 18:23N 47°16' W 122°26'2 6.2
2018-Feb-19 18:01N 47°18' W 122°27'4 9.0
2018-Feb-19 17:31N 47°22' W 122°24'4 8.9
2018-Feb-19 17:00N 47°26' W 122°23'510.7
2018-Feb-19 16:31N 47°32' W 122°25'5 9.3
2018-Feb-19 16:00N 47°36' W 122°24'2 3.8
2018-Feb-19 15:31N 47°38' W 122°23'0 0.0
2018-Feb-19 15:00N 47°38' W 122°23'0 0.0
2018-Feb-19 14:30N 47°38' W 122°23'0 0.0
2018-Feb-19 14:00N 47°38' W 122°23'0 0.0
2018-Feb-19 13:30N 47°38' W 122°23'0 0.0
2018-Feb-19 13:00N 47°38' W 122°23'0 0.0
2018-Feb-19 12:30N 47°38' W 122°23'0 0.0
2018-Feb-19 12:00N 47°38' W 122°23'0 0.0
2018-Feb-19 11:30N 47°38' W 122°23'0 0.0
2018-Feb-19 11:00N 47°38' W 122°23'0 0.0
2018-Feb-19 10:30N 47°38' W 122°23'0 0.0
2018-Feb-19 10:00N 47°38' W 122°23'0 0.0
2018-Feb-19 09:30N 47°38' W 122°23'0 0.0
2018-Feb-19 09:00N 47°38' W 122°23'0 0.0
2018-Feb-19 08:30N 47°38' W 122°23'0 0.0
2018-Feb-19 08:00N 47°38' W 122°23'0 0.0
2018-Feb-19 07:30N 47°38' W 122°23'0 0.0
2018-Feb-19 07:00N 47°38' W 122°23'0 0.0
2018-Feb-19 06:30N 47°38' W 122°23'0 0.0
2018-Feb-19 06:00N 47°38' W 122°23'0 0.0
2018-Feb-19 05:30N 47°38' W 122°23'0 0.0
2018-Feb-19 05:00N 47°38' W 122°23'0 0.0
2018-Feb-19 04:30N 47°38' W 122°23'0 0.0
2018-Feb-19 04:00N 47°38' W 122°23'0 0.0
2018-Feb-19 03:30N 47°38' W 122°23'0 0.0
2018-Feb-19 03:00N 47°38' W 122°23'0 0.0
2018-Feb-19 02:30N 47°38' W 122°23'0 0.0
2018-Feb-19 02:00N 47°38' W 122°23'1 1.1
2018-Feb-19 01:30N 47°37' W 122°23'1 1.1
2018-Feb-19 01:00N 47°38' W 122°23'0 0.0
2018-Feb-19 00:30N 47°38' W 122°23'0 0.0
2018-Feb-19 00:00N 47°38' W 122°23'0 0.1
2018-Feb-18 23:30N 47°38' W 122°23'2 4.6
2018-Feb-18 23:00N 47°39' W 122°26'3 3.2
2018-Feb-18 22:04N 47°39' W 122°22'2 3.8
2018-Feb-18 21:37N 47°38' W 122°20'0 0.0
2018-Feb-18 21:22N 47°38' W 122°20'0 0.0
2018-Feb-18 20:52N 47°38' W 122°20'0 0.0
2018-Feb-18 20:28N 47°38' W 122°20'0 0.0
2018-Feb-18 19:58N 47°38' W 122°20'0 0.0
2018-Feb-18 19:28N 47°38' W 122°20'0 0.0
2018-Feb-18 18:58N 47°38' W 122°20'0 0.0
2018-Feb-18 18:28N 47°38' W 122°20'0 0.0
2018-Feb-18 17:58N 47°38' W 122°20'0 0.0
2018-Feb-18 17:28N 47°38' W 122°20'0 0.0
2018-Feb-18 16:55N 47°38' W 122°20'0 0.0
2018-Feb-18 16:28N 47°38' W 122°20'0 0.0
2018-Feb-18 15:58N 47°38' W 122°20'0 0.0
2018-Feb-18 15:28N 47°38' W 122°20'0 0.0
2018-Feb-18 14:58N 47°38' W 122°20'0 0.0
2018-Feb-18 14:28N 47°38' W 122°20'0 0.0
2018-Feb-18 13:58N 47°38' W 122°20'0 0.0
2018-Feb-18 13:28N 47°38' W 122°20'0 0.0
2018-Feb-18 12:58N 47°38' W 122°20'0 0.0
2018-Feb-18 12:28N 47°38' W 122°20'0 0.0
2018-Feb-18 11:58N 47°38' W 122°20'0 0.0
2018-Feb-18 11:28N 47°38' W 122°20'0 0.0
2018-Feb-18 10:58N 47°38' W 122°20'0 0.0
2018-Feb-18 10:28N 47°38' W 122°20'0 0.0
2018-Feb-18 09:58N 47°38' W 122°20'0 0.0
2018-Feb-18 09:28N 47°38' W 122°20'0 0.0
2018-Feb-18 08:58N 47°38' W 122°20'0 0.0
2018-Feb-18 08:28N 47°38' W 122°20'0 0.0
2018-Feb-18 07:58N 47°38' W 122°20'0 0.0
2018-Feb-18 07:28N 47°38' W 122°20'0 0.0
2018-Feb-18 06:58N 47°38' W 122°20'0 0.0
2018-Feb-18 06:28N 47°38' W 122°20'0 0.0
2018-Feb-18 05:58N 47°38' W 122°20'0 0.0
2018-Feb-18 05:25N 47°38' W 122°20'0 0.0
2018-Feb-18 04:55N 47°38' W 122°20'0 0.0
2018-Feb-18 04:28N 47°38' W 122°20'0 0.0
2018-Feb-18 03:58N 47°38' W 122°20'0 0.0
2018-Feb-18 03:28N 47°38' W 122°20'0 0.0
2018-Feb-18 02:58N 47°38' W 122°20'0 0.0
2018-Feb-18 02:28N 47°38' W 122°20'0 0.0
2018-Feb-18 01:58N 47°38' W 122°20'0 0.0
2018-Feb-18 01:28N 47°38' W 122°20'0 0.0
2018-Feb-18 00:58N 47°38' W 122°20'0 0.0
2018-Feb-18 00:28N 47°38' W 122°20'0 0.0
2018-Feb-17 23:58N 47°38' W 122°20'0 0.0
2018-Feb-17 23:28N 47°38' W 122°20'0 0.0
2018-Feb-17 22:58N 47°38' W 122°20'0 0.0
2018-Feb-17 22:28N 47°38' W 122°20'0 0.0
2018-Feb-17 21:58N 47°38' W 122°20'0 0.0
2018-Feb-17 21:28N 47°38' W 122°20'0 0.0
2018-Feb-17 20:58N 47°38' W 122°20'0 0.0
2018-Feb-17 20:25N 47°38' W 122°20'0 0.0
2018-Feb-17 19:55N 47°38' W 122°20'0 0.0
2018-Feb-17 19:28N 47°38' W 122°20'0 0.0
2018-Feb-17 18:58N 47°38' W 122°20'0 0.0
2018-Feb-17 18:28N 47°38' W 122°20'0 0.0
2018-Feb-17 17:58N 47°38' W 122°20'0 0.0
2018-Feb-17 17:28N 47°38' W 122°20'0 0.0
2018-Feb-17 16:58N 47°38' W 122°20'0 0.0
2018-Feb-17 16:28N 47°38' W 122°20'0 0.0
2018-Feb-17 15:58N 47°38' W 122°20'0 0.0
2018-Feb-17 15:28N 47°38' W 122°20'0 0.0
2018-Feb-17 14:55N 47°38' W 122°20'0 0.0
2018-Feb-17 14:28N 47°38' W 122°20'0 0.0
2018-Feb-17 13:58N 47°38' W 122°20'0 0.0
2018-Feb-17 13:28N 47°38' W 122°20'0 0.0
2018-Feb-17 12:58N 47°38' W 122°20'0 0.0
2018-Feb-17 12:28N 47°38' W 122°20'0 0.0
2018-Feb-17 11:58N 47°38' W 122°20'0 0.0
2018-Feb-17 11:28N 47°38' W 122°20'0 0.0
2018-Feb-17 10:58N 47°38' W 122°20'0 0.0
2018-Feb-17 10:25N 47°38' W 122°20'0 0.0
2018-Feb-17 09:58N 47°38' W 122°20'0 0.0
2018-Feb-17 09:25N 47°38' W 122°20'0 0.0
2018-Feb-17 08:55N 47°38' W 122°20'0 0.0
2018-Feb-17 08:28N 47°38' W 122°20'0 0.0
2018-Feb-17 07:58N 47°38' W 122°20'0 0.0
2018-Feb-17 07:28N 47°38' W 122°20'0 0.0
2018-Feb-17 06:58N 47°38' W 122°20'0 0.0
2018-Feb-17 06:28N 47°38' W 122°20'0 0.0
2018-Feb-17 05:58N 47°38' W 122°20'0 0.0
2018-Feb-17 05:28N 47°38' W 122°20'0 0.0
2018-Feb-17 04:58N 47°38' W 122°20'0 0.0
2018-Feb-17 04:28N 47°38' W 122°20'0 0.0
2018-Feb-17 03:55N 47°38' W 122°20'0 0.0
2018-Feb-17 03:28N 47°38' W 122°20'0 0.0
2018-Feb-17 02:58N 47°38' W 122°20'0 0.0
2018-Feb-17 02:28N 47°38' W 122°20'0 0.0
2018-Feb-17 01:58N 47°38' W 122°20'0 0.0
2018-Feb-17 01:28N 47°38' W 122°20'0 0.0
2018-Feb-17 00:58N 47°38' W 122°20'0 0.0
2018-Feb-17 00:25N 47°38' W 122°20'0 0.0
2018-Feb-16 23:58N 47°38' W 122°20'0 0.0
2018-Feb-16 23:28N 47°38' W 122°20'0 0.0
2018-Feb-16 22:55N 47°38' W 122°20'0 0.0
2018-Feb-16 22:25N 47°38' W 122°20'0 0.0
2018-Feb-16 21:58N 47°38' W 122°20'0 0.0
2018-Feb-16 21:28N 47°38' W 122°20'0 0.0
2018-Feb-16 20:58N 47°38' W 122°20'0 0.0
2018-Feb-16 20:28N 47°38' W 122°20'0 0.0
2018-Feb-16 19:58N 47°38' W 122°20'0 0.0
2018-Feb-16 19:25N 47°38' W 122°20'0 0.0
2018-Feb-16 18:55N 47°38' W 122°20'0 0.0
2018-Feb-16 18:28N 47°38' W 122°20'0 0.0
2018-Feb-16 17:40N 47°38' W 122°20'0 0.0
2018-Feb-16 17:25N 47°38' W 122°20'0 0.0
2018-Feb-16 16:55N 47°38' W 122°20'0 0.0
2018-Feb-16 16:25N 47°38' W 122°20'0 0.0
2018-Feb-16 15:58N 47°38' W 122°20'0 0.0
2018-Feb-16 15:28N 47°38' W 122°20'0 0.0
2018-Feb-16 14:55N 47°38' W 122°20'0 0.0
2018-Feb-16 14:28N 47°38' W 122°20'0 0.0
2018-Feb-16 13:58N 47°38' W 122°20'0 0.0
2018-Feb-16 13:28N 47°38' W 122°20'0 0.0
2018-Feb-16 12:58N 47°38' W 122°20'0 0.0
2018-Feb-16 12:28N 47°38' W 122°20'0 0.0
2018-Feb-16 11:58N 47°38' W 122°20'0 0.0
2018-Feb-16 11:28N 47°38' W 122°20'0 0.0
2018-Feb-16 10:55N 47°38' W 122°20'0 0.0
2018-Feb-16 10:28N 47°38' W 122°20'0 0.0
2018-Feb-16 09:58N 47°38' W 122°20'0 0.0
2018-Feb-16 09:28N 47°38' W 122°20'0 0.0
2018-Feb-16 08:49N 47°38' W 122°20'0 0.0
2018-Feb-16 08:28N 47°38' W 122°20'0 0.0
2018-Feb-16 07:55N 47°38' W 122°20'0 0.0
2018-Feb-16 07:25N 47°38' W 122°20'0 0.0
2018-Feb-16 06:58N 47°38' W 122°20'0 0.0
2018-Feb-16 06:28N 47°38' W 122°20'0 0.0
2018-Feb-16 05:58N 47°38' W 122°20'0 0.0
2018-Feb-16 05:28N 47°38' W 122°20'0 0.0
2018-Feb-16 04:49N 47°38' W 122°20'0 0.0
2018-Feb-16 04:28N 47°38' W 122°20'0 0.0
2018-Feb-16 03:58N 47°38' W 122°20'0 0.0
2018-Feb-16 03:28N 47°38' W 122°20'1 1.9
2018-Feb-16 03:00N 47°39' W 122°21'3 5.1
2018-Feb-16 02:31N 47°40' W 122°24'2 3.5
2018-Feb-16 02:01N 47°41' W 122°25'4 7.4
2018-Feb-16 01:30N 47°45' W 122°26'4 7.2
2018-Feb-16 01:01N 47°49' W 122°28'4 7.7
2018-Feb-16 00:30N 47°52' W 122°29'4 7.2
2018-Feb-16 00:00N 47°55' W 122°31'26 7.8
2018-Feb-15 20:40N 48°20' W 122°47'1 7.7
2018-Feb-15 20:29N 48°21' W 122°47'4 7.5
2018-Feb-15 20:00N 48°24' W 122°45'  
Track history (hours):
 
Tides and Currents Weather Stations Pressure Air Temp Water Temp Dewpoint Dewpoint Depression Visibility Wind Speed Wind Dir Waves Ship Positions

Wedell Foss

Owner: FOSS MARITIME COMPANY, SEATTLE, WA. More information available from US FCC via Universal Licensing System and Coast Guard Vessel Documentation Center.

Last reported at 2018-Feb-25 19:59 UTC. Time now 2018-Feb-25 20:02 UTC.
Position N 47°18' W 122°26'.

Length 34 m; draft 6.4 m.

Type: Towing. MMSI: 366976920.

Date/timePositionNaut miles runAvg speedWind from/ knotsBaromVisibWave heightAir tempDewpointWater temp
2018-Feb-25 19:59N 47°18' W 122°26'0 0.3
2018-Feb-25 19:30N 47°18' W 122°26'0 0.1
2018-Feb-25 15:18N 47°17' W 122°25'1 1.9
2018-Feb-25 15:00N 47°18' W 122°26'0 0.9
2018-Feb-25 14:29N 47°17' W 122°25'1 1.7
2018-Feb-25 14:00N 47°17' W 122°25'1 2.3
2018-Feb-25 13:30N 47°16' W 122°26'0 0.0
2018-Feb-25 13:00N 47°16' W 122°26'0 0.0
2018-Feb-25 12:27N 47°16' W 122°26'0 0.0
2018-Feb-25 11:59N 47°16' W 122°26'0 0.0
2018-Feb-25 11:29N 47°16' W 122°26'0 0.0
2018-Feb-25 11:00N 47°16' W 122°26'0 0.0
2018-Feb-25 10:30N 47°16' W 122°26'0 0.0
2018-Feb-25 10:00N 47°16' W 122°26'0 0.0
2018-Feb-25 09:30N 47°16' W 122°26'0 0.0
2018-Feb-25 09:00N 47°16' W 122°26'0 0.2
2018-Feb-25 08:29N 47°16' W 122°26'4 7.7
2018-Feb-25 08:00N 47°19' W 122°28'4 8.2
2018-Feb-25 07:30N 47°22' W 122°23'4 7.9
2018-Feb-25 07:00N 47°26' W 122°23'4 8.9
2018-Feb-25 06:30N 47°31' W 122°24'4 8.7
2018-Feb-25 06:00N 47°35' W 122°25'3 5.3
2018-Feb-25 05:30N 47°35' W 122°22'1 2.2
2018-Feb-25 05:00N 47°34' W 122°21'1 1.8
2018-Feb-25 04:30N 47°33' W 122°21'0 0.9
2018-Feb-25 03:59N 47°33' W 122°20'0 0.0
2018-Feb-25 03:30N 47°33' W 122°20'0 0.1
2018-Feb-25 03:00N 47°33' W 122°20'0 0.2
2018-Feb-25 02:30N 47°33' W 122°20'4 7.1
2018-Feb-25 02:00N 47°36' W 122°23'4 8.3
2018-Feb-25 01:30N 47°32' W 122°25'510.1
2018-Feb-25 01:00N 47°27' W 122°24'5 9.7
2018-Feb-25 00:30N 47°23' W 122°21'510.0
2018-Feb-25 00:00N 47°19' W 122°27'4 7.2
2018-Feb-24 23:28N 47°16' W 122°24'1 1.5
2018-Feb-24 23:00N 47°15' W 122°23'1 2.7
2018-Feb-24 22:27N 47°16' W 122°24'2 4.1
2018-Feb-24 22:00N 47°18' W 122°26'1 2.9
2018-Feb-24 21:30N 47°17' W 122°25'1 2.2
2018-Feb-24 20:59N 47°16' W 122°26'0 0.0
2018-Feb-24 20:30N 47°16' W 122°26'0 0.0
2018-Feb-24 19:58N 47°16' W 122°26'0 0.0
2018-Feb-24 19:30N 47°16' W 122°26'0 0.0
2018-Feb-24 19:00N 47°16' W 122°26'0 0.0
2018-Feb-24 18:30N 47°16' W 122°26'0 0.0
2018-Feb-24 18:00N 47°16' W 122°26'0 0.0
2018-Feb-24 17:30N 47°16' W 122°26'0 0.0
2018-Feb-24 17:00N 47°16' W 122°26'0 0.0
2018-Feb-24 16:30N 47°16' W 122°26'0 0.0
2018-Feb-24 16:00N 47°16' W 122°26'0 0.0
2018-Feb-24 15:30N 47°16' W 122°26'0 0.0
2018-Feb-24 15:00N 47°16' W 122°26'0 0.0
2018-Feb-24 14:30N 47°16' W 122°26'0 0.0
2018-Feb-24 14:00N 47°16' W 122°26'0 0.0
2018-Feb-24 13:30N 47°16' W 122°26'0 0.0
2018-Feb-24 13:00N 47°16' W 122°26'0 0.0
2018-Feb-24 12:30N 47°16' W 122°26'0 0.0
2018-Feb-24 12:00N 47°16' W 122°26'1 1.1
2018-Feb-24 11:30N 47°16' W 122°27'0 0.7
2018-Feb-24 11:00N 47°16' W 122°27'0 0.8
2018-Feb-24 10:30N 47°16' W 122°27'0 0.2
2018-Feb-24 10:00N 47°16' W 122°26'0 0.8
2018-Feb-24 09:30N 47°16' W 122°26'1 2.4
2018-Feb-24 09:00N 47°17' W 122°24'0 0.2
2018-Feb-24 08:30N 47°17' W 122°25'0 0.0
2018-Feb-24 07:55N 47°17' W 122°25'0 0.0
2018-Feb-24 07:20N 47°17' W 122°25'1 1.8
2018-Feb-24 06:59N 47°17' W 122°25'0 0.9
2018-Feb-24 06:30N 47°16' W 122°25'0 0.1
2018-Feb-24 05:45N 47°16' W 122°25'1 3.5
2018-Feb-24 05:30N 47°16' W 122°26'1 1.1
2018-Feb-24 05:00N 47°16' W 122°26'0 0.0
2018-Feb-24 04:30N 47°16' W 122°26'0 0.0
2018-Feb-24 04:00N 47°16' W 122°26'0 0.0
2018-Feb-24 03:29N 47°16' W 122°26'0 0.0
2018-Feb-24 03:00N 47°16' W 122°26'0 0.0
2018-Feb-24 02:29N 47°16' W 122°26'0 0.0
2018-Feb-24 01:59N 47°16' W 122°26'1 2.7
2018-Feb-24 01:30N 47°17' W 122°25'2 3.4
2018-Feb-24 01:00N 47°16' W 122°23'2 0.5
2018-Feb-23 21:23N 47°16' W 122°26'0 0.0
2018-Feb-23 20:59N 47°16' W 122°26'0 0.0
2018-Feb-23 20:30N 47°16' W 122°26'0 0.0
2018-Feb-23 19:57N 47°16' W 122°26'0 0.0
2018-Feb-23 19:30N 47°16' W 122°26'0 0.0
2018-Feb-23 18:59N 47°16' W 122°26'0 0.0
2018-Feb-23 18:30N 47°16' W 122°26'0 0.0
2018-Feb-23 18:00N 47°16' W 122°26'0 0.0
2018-Feb-23 17:30N 47°16' W 122°26'0 0.0
2018-Feb-23 17:00N 47°16' W 122°26'0 0.0
2018-Feb-23 16:30N 47°16' W 122°26'0 0.0
2018-Feb-23 15:57N 47°16' W 122°26'0 0.0
2018-Feb-23 15:30N 47°16' W 122°26'0 0.0
2018-Feb-23 15:00N 47°16' W 122°26'0 0.0
2018-Feb-23 14:25N 47°16' W 122°26'0 0.0
2018-Feb-23 13:59N 47°16' W 122°26'0 0.0
2018-Feb-23 13:29N 47°16' W 122°26'0 0.0
2018-Feb-23 12:56N 47°16' W 122°26'1 2.1
2018-Feb-23 12:30N 47°17' W 122°26'2 3.3
2018-Feb-23 12:00N 47°16' W 122°24'1 1.7
2018-Feb-23 11:30N 47°15' W 122°23'0 0.6
2018-Feb-23 10:57N 47°16' W 122°23'0 0.0
2018-Feb-23 09:14N 47°16' W 122°23'1 4.1
2018-Feb-23 08:52N 47°17' W 122°25'1 1.4
2018-Feb-23 08:30N 47°16' W 122°25'0 0.1
2018-Feb-23 08:00N 47°16' W 122°25'1 2.3
2018-Feb-23 07:30N 47°17' W 122°26'1 2.6
2018-Feb-23 06:59N 47°16' W 122°26'0 0.0
2018-Feb-23 06:30N 47°16' W 122°26'0 0.0
2018-Feb-23 05:59N 47°16' W 122°26'0 0.0
2018-Feb-23 05:30N 47°16' W 122°26'0 0.0
2018-Feb-23 04:59N 47°16' W 122°26'0 0.0
2018-Feb-23 04:30N 47°16' W 122°26'0 0.0
2018-Feb-23 04:00N 47°16' W 122°26'0 0.0
2018-Feb-23 03:30N 47°16' W 122°26'0 0.0
2018-Feb-23 03:00N 47°16' W 122°26'1 2.5
2018-Feb-23 02:30N 47°17' W 122°26'1 0.5
2018-Feb-23 01:04N 47°17' W 122°25'1 0.9
2018-Feb-23 00:24N 47°17' W 122°25'1 1.8
2018-Feb-22 23:59N 47°17' W 122°25'1 1.3
2018-Feb-22 23:30N 47°18' W 122°26'0 0.0
2018-Feb-22 22:57N 47°18' W 122°26'1 0.5
2018-Feb-22 21:33N 47°17' W 122°25'0 7.6
2018-Feb-22 21:30N 47°17' W 122°25'1 2.5
2018-Feb-22 20:59N 47°16' W 122°26'0 0.0
2018-Feb-22 20:30N 47°16' W 122°26'0 0.0
2018-Feb-22 20:00N 47°16' W 122°26'0 0.0
2018-Feb-22 19:30N 47°16' W 122°26'0 0.0
2018-Feb-22 19:00N 47°16' W 122°26'0 0.0
2018-Feb-22 18:30N 47°16' W 122°26'0 0.0
2018-Feb-22 17:59N 47°16' W 122°26'0 0.0
2018-Feb-22 17:29N 47°16' W 122°26'0 0.0
2018-Feb-22 17:00N 47°16' W 122°26'0 0.0
2018-Feb-22 16:30N 47°16' W 122°26'0 0.0
2018-Feb-22 16:00N 47°16' W 122°26'0 0.0
2018-Feb-22 15:30N 47°16' W 122°26'0 0.0
2018-Feb-22 15:00N 47°16' W 122°26'0 0.0
2018-Feb-22 14:30N 47°16' W 122°26'0 0.0
2018-Feb-22 14:00N 47°16' W 122°26'0 0.0
2018-Feb-22 13:30N 47°16' W 122°26'0 0.0
2018-Feb-22 13:00N 47°16' W 122°26'0 0.0
2018-Feb-22 12:30N 47°16' W 122°26'0 0.0
2018-Feb-22 12:00N 47°16' W 122°26'0 0.0
2018-Feb-22 11:29N 47°16' W 122°26'0 0.0
2018-Feb-22 11:00N 47°16' W 122°26'0 0.0
2018-Feb-22 10:28N 47°16' W 122°26'1 2.5
2018-Feb-22 09:58N 47°16' W 122°24'0 0.2
2018-Feb-22 09:03N 47°17' W 122°24'0 0.3
2018-Feb-22 08:45N 47°17' W 122°25'0 0.0
2018-Feb-22 08:18N 47°17' W 122°25'0 0.0
2018-Feb-22 08:00N 47°17' W 122°25'0 0.0
2018-Feb-22 07:30N 47°17' W 122°25'1 1.5
2018-Feb-22 07:00N 47°17' W 122°26'1 1.2
2018-Feb-22 06:30N 47°16' W 122°25'0 0.0
2018-Feb-22 03:22N 47°16' W 122°25'1 0.6
2018-Feb-22 02:14N 47°16' W 122°24'1 2.4
2018-Feb-22 01:59N 47°17' W 122°24'1 2.3
2018-Feb-22 01:30N 47°17' W 122°26'1 2.8
2018-Feb-22 01:00N 47°16' W 122°26'0 0.0
2018-Feb-22 00:29N 47°16' W 122°26'0 0.0
2018-Feb-22 00:00N 47°16' W 122°26'0 0.0
2018-Feb-21 23:28N 47°16' W 122°26'0 0.0
2018-Feb-21 22:57N 47°16' W 122°26'2 2.9
2018-Feb-21 22:23N 47°16' W 122°24'1 2.0
2018-Feb-21 21:59N 47°15' W 122°23'1 1.3
2018-Feb-21 21:24N 47°16' W 122°24'1 2.8
2018-Feb-21 20:59N 47°17' W 122°25'1 2.4
2018-Feb-21 20:30N 47°17' W 122°26'2 3.0
2018-Feb-21 20:00N 47°16' W 122°25'0 0.6
2018-Feb-21 19:30N 47°16' W 122°25'1 1.8
2018-Feb-21 19:00N 47°17' W 122°26'1 2.5
2018-Feb-21 18:30N 47°16' W 122°26'0 0.0
2018-Feb-21 18:00N 47°16' W 122°26'0 0.0
2018-Feb-21 17:30N 47°16' W 122°26'0 0.0
2018-Feb-21 17:00N 47°16' W 122°26'0 0.0
2018-Feb-21 16:30N 47°16' W 122°26'0 0.0
2018-Feb-21 15:59N 47°16' W 122°26'0 0.0
2018-Feb-21 15:30N 47°16' W 122°26'0 0.0
2018-Feb-21 15:00N 47°16' W 122°26'0 0.0
2018-Feb-21 14:30N 47°16' W 122°26'0 0.0
2018-Feb-21 14:00N 47°16' W 122°26'0 0.0
2018-Feb-21 13:30N 47°16' W 122°26'0 0.0
2018-Feb-21 13:00N 47°16' W 122°26'0 0.0
2018-Feb-21 12:28N 47°16' W 122°26'0 0.0
2018-Feb-21 12:00N 47°16' W 122°26'0 0.0
2018-Feb-21 11:30N 47°16' W 122°26'0 0.0
2018-Feb-21 11:00N 47°16' W 122°26'0 0.0
2018-Feb-21 10:28N 47°16' W 122°26'0 0.0
2018-Feb-21 10:00N 47°16' W 122°26'0 0.0
2018-Feb-21 09:30N 47°16' W 122°26'0 0.0
2018-Feb-21 08:59N 47°16' W 122°26'0 0.0
2018-Feb-21 08:30N 47°16' W 122°26'0 0.0
2018-Feb-21 07:59N 47°16' W 122°26'0 0.0
2018-Feb-21 07:30N 47°16' W 122°26'0 0.0
2018-Feb-21 07:00N 47°16' W 122°26'0 0.0
2018-Feb-21 06:30N 47°16' W 122°26'0 0.0
2018-Feb-21 06:00N 47°16' W 122°26'0 0.0
2018-Feb-21 05:29N 47°16' W 122°26'0 0.0
2018-Feb-21 05:00N 47°16' W 122°26'0 0.0
2018-Feb-21 04:30N 47°16' W 122°26'0 0.0
2018-Feb-21 04:00N 47°16' W 122°26'0 0.0
2018-Feb-21 03:30N 47°16' W 122°26'0 0.0
2018-Feb-21 03:00N 47°16' W 122°26'0 0.0
2018-Feb-21 02:30N 47°16' W 122°26'0 0.0
2018-Feb-21 02:00N 47°16' W 122°26'0 0.0
2018-Feb-21 01:30N 47°16' W 122°26'0 0.0
2018-Feb-21 01:00N 47°16' W 122°26'0 0.0
2018-Feb-21 00:29N 47°16' W 122°26'0 0.0
2018-Feb-21 00:00N 47°16' W 122°26'0 0.0
2018-Feb-20 23:30N 47°16' W 122°26'0 0.0
2018-Feb-20 23:00N 47°16' W 122°26'0 0.0
2018-Feb-20 22:30N 47°16' W 122°26'0 0.0
2018-Feb-20 22:00N 47°16' W 122°26'0 0.0
2018-Feb-20 21:30N 47°16' W 122°26'0 0.0
2018-Feb-20 21:00N 47°16' W 122°26'0 0.0
2018-Feb-20 20:30N 47°16' W 122°26'0 0.0
2018-Feb-20 20:00N 47°16' W 122°26'0 0.0
2018-Feb-20 19:29N 47°16' W 122°26'0 0.0
2018-Feb-20 19:00N 47°16' W 122°26'0 0.0
2018-Feb-20 18:30N 47°16' W 122°26'0 0.0
2018-Feb-20 18:00N 47°16' W 122°26'0 0.0
2018-Feb-20 17:30N 47°16' W 122°26'2 4.1
2018-Feb-20 17:00N 47°18' W 122°26'1 2.7
2018-Feb-20 16:30N 47°17' W 122°25'0 0.0
2018-Feb-20 16:00N 47°17' W 122°25'0 0.0
2018-Feb-20 15:30N 47°17' W 122°25'1 2.3
2018-Feb-20 15:00N 47°17' W 122°26'2 3.3
2018-Feb-20 14:30N 47°16' W 122°26'0 0.0
2018-Feb-20 14:00N 47°16' W 122°26'0 0.0
2018-Feb-20 13:30N 47°16' W 122°26'1 2.3
2018-Feb-20 13:00N 47°17' W 122°25'1 2.6
2018-Feb-20 12:27N 47°16' W 122°23'0 1.0
2018-Feb-20 11:59N 47°15' W 122°23'3 5.3
2018-Feb-20 11:30N 47°17' W 122°25'1 1.2
2018-Feb-20 11:00N 47°17' W 122°25'0 0.2
2018-Feb-20 10:30N 47°17' W 122°25'1 2.3
2018-Feb-20 09:59N 47°16' W 122°26'0 0.0
2018-Feb-20 09:25N 47°16' W 122°26'0 0.0
2018-Feb-20 08:55N 47°16' W 122°26'0 0.0
2018-Feb-20 08:28N 47°16' W 122°26'0 0.0
2018-Feb-20 07:58N 47°16' W 122°26'0 0.0
2018-Feb-20 07:25N 47°16' W 122°26'0 0.0
2018-Feb-20 06:58N 47°16' W 122°26'0 0.0
2018-Feb-20 06:28N 47°16' W 122°26'0 0.0
2018-Feb-20 05:40N 47°16' W 122°26'0 0.0
2018-Feb-20 05:25N 47°16' W 122°26'0 0.0
2018-Feb-20 04:46N 47°16' W 122°26'0 0.0
2018-Feb-20 04:22N 47°16' W 122°26'0 0.0
2018-Feb-20 03:37N 47°16' W 122°26'0 0.0
2018-Feb-20 03:25N 47°16' W 122°26'0 0.0
2018-Feb-20 02:58N 47°16' W 122°26'0 0.0
2018-Feb-20 02:28N 47°16' W 122°26'0 0.0
2018-Feb-20 01:58N 47°16' W 122°26'0 0.0
2018-Feb-20 01:28N 47°16' W 122°26'0 0.0
2018-Feb-20 00:58N 47°16' W 122°26'0 0.0
2018-Feb-20 00:28N 47°16' W 122°26'0 0.0
2018-Feb-19 23:55N 47°16' W 122°26'0 0.0
2018-Feb-19 23:28N 47°16' W 122°26'0 0.0
2018-Feb-19 22:58N 47°16' W 122°26'0 0.0
2018-Feb-19 22:25N 47°16' W 122°26'0 0.0
2018-Feb-19 21:55N 47°16' W 122°26'0 0.0
2018-Feb-19 21:22N 47°16' W 122°26'0 0.0
2018-Feb-19 20:58N 47°16' W 122°26'0 0.0
2018-Feb-19 20:28N 47°16' W 122°26'0 0.0
2018-Feb-19 19:58N 47°16' W 122°26'0 0.0
2018-Feb-19 19:28N 47°16' W 122°26'0 0.0
2018-Feb-19 18:58N 47°16' W 122°26'0 0.0
2018-Feb-19 18:23N 47°16' W 122°26'2 6.2
2018-Feb-19 18:01N 47°18' W 122°27'4 9.0
2018-Feb-19 17:31N 47°22' W 122°24'4 8.9
2018-Feb-19 17:00N 47°26' W 122°23'510.7
2018-Feb-19 16:31N 47°32' W 122°25'5 9.3
2018-Feb-19 16:00N 47°36' W 122°24'2 3.8
2018-Feb-19 15:31N 47°38' W 122°23'0 0.0
2018-Feb-19 15:00N 47°38' W 122°23'0 0.0
2018-Feb-19 14:30N 47°38' W 122°23'0 0.0
2018-Feb-19 14:00N 47°38' W 122°23'0 0.0
2018-Feb-19 13:30N 47°38' W 122°23'0 0.0
2018-Feb-19 13:00N 47°38' W 122°23'0 0.0
2018-Feb-19 12:30N 47°38' W 122°23'0 0.0
2018-Feb-19 12:00N 47°38' W 122°23'0 0.0
2018-Feb-19 11:30N 47°38' W 122°23'0 0.0
2018-Feb-19 11:00N 47°38' W 122°23'0 0.0
2018-Feb-19 10:30N 47°38' W 122°23'0 0.0
2018-Feb-19 10:00N 47°38' W 122°23'0 0.0
2018-Feb-19 09:30N 47°38' W 122°23'0 0.0
2018-Feb-19 09:00N 47°38' W 122°23'0 0.0
2018-Feb-19 08:30N 47°38' W 122°23'0 0.0
2018-Feb-19 08:00N 47°38' W 122°23'0 0.0
2018-Feb-19 07:30N 47°38' W 122°23'0 0.0
2018-Feb-19 07:00N 47°38' W 122°23'0 0.0
2018-Feb-19 06:30N 47°38' W 122°23'0 0.0
2018-Feb-19 06:00N 47°38' W 122°23'0 0.0
2018-Feb-19 05:30N 47°38' W 122°23'0 0.0
2018-Feb-19 05:00N 47°38' W 122°23'0 0.0
2018-Feb-19 04:30N 47°38' W 122°23'0 0.0
2018-Feb-19 04:00N 47°38' W 122°23'0 0.0
2018-Feb-19 03:30N 47°38' W 122°23'0 0.0
2018-Feb-19 03:00N 47°38' W 122°23'0 0.0
2018-Feb-19 02:30N 47°38' W 122°23'0 0.0
2018-Feb-19 02:00N 47°38' W 122°23'1 1.1
2018-Feb-19 01:30N 47°37' W 122°23'1 1.1
2018-Feb-19 01:00N 47°38' W 122°23'0 0.0
2018-Feb-19 00:30N 47°38' W 122°23'0 0.0
2018-Feb-19 00:00N 47°38' W 122°23'0 0.1
2018-Feb-18 23:30N 47°38' W 122°23'2 4.6
2018-Feb-18 23:00N 47°39' W 122°26'3 3.2
2018-Feb-18 22:04N 47°39' W 122°22'2 3.8
2018-Feb-18 21:37N 47°38' W 122°20'0 0.0
2018-Feb-18 21:22N 47°38' W 122°20'0 0.0
2018-Feb-18 20:52N 47°38' W 122°20'0 0.0
2018-Feb-18 20:28N 47°38' W 122°20'0 0.0
2018-Feb-18 19:58N 47°38' W 122°20'0 0.0
2018-Feb-18 19:28N 47°38' W 122°20'0 0.0
2018-Feb-18 18:58N 47°38' W 122°20'0 0.0
2018-Feb-18 18:28N 47°38' W 122°20'0 0.0
2018-Feb-18 17:58N 47°38' W 122°20'0 0.0
2018-Feb-18 17:28N 47°38' W 122°20'0 0.0
2018-Feb-18 16:55N 47°38' W 122°20'0 0.0
2018-Feb-18 16:28N 47°38' W 122°20'0 0.0
2018-Feb-18 15:58N 47°38' W 122°20'0 0.0
2018-Feb-18 15:28N 47°38' W 122°20'0 0.0
2018-Feb-18 14:58N 47°38' W 122°20'0 0.0
2018-Feb-18 14:28N 47°38' W 122°20'0 0.0
2018-Feb-18 13:58N 47°38' W 122°20'0 0.0
2018-Feb-18 13:28N 47°38' W 122°20'0 0.0
2018-Feb-18 12:58N 47°38' W 122°20'0 0.0
2018-Feb-18 12:28N 47°38' W 122°20'0 0.0
2018-Feb-18 11:58N 47°38' W 122°20'0 0.0
2018-Feb-18 11:28N 47°38' W 122°20'0 0.0
2018-Feb-18 10:58N 47°38' W 122°20'0 0.0
2018-Feb-18 10:28N 47°38' W 122°20'0 0.0
2018-Feb-18 09:58N 47°38' W 122°20'0 0.0
2018-Feb-18 09:28N 47°38' W 122°20'0 0.0
2018-Feb-18 08:58N 47°38' W 122°20'0 0.0
2018-Feb-18 08:28N 47°38' W 122°20'0 0.0
2018-Feb-18 07:58N 47°38' W 122°20'0 0.0
2018-Feb-18 07:28N 47°38' W 122°20'0 0.0
2018-Feb-18 06:58N 47°38' W 122°20'0 0.0
2018-Feb-18 06:28N 47°38' W 122°20'0 0.0
2018-Feb-18 05:58N 47°38' W 122°20'0 0.0
2018-Feb-18 05:25N 47°38' W 122°20'0 0.0
2018-Feb-18 04:55N 47°38' W 122°20'0 0.0
2018-Feb-18 04:28N 47°38' W 122°20'0 0.0
2018-Feb-18 03:58N 47°38' W 122°20'0 0.0
2018-Feb-18 03:28N 47°38' W 122°20'0 0.0
2018-Feb-18 02:58N 47°38' W 122°20'0 0.0
2018-Feb-18 02:28N 47°38' W 122°20'0 0.0
2018-Feb-18 01:58N 47°38' W 122°20'0 0.0
2018-Feb-18 01:28N 47°38' W 122°20'0 0.0
2018-Feb-18 00:58N 47°38' W 122°20'0 0.0
2018-Feb-18 00:28N 47°38' W 122°20'0 0.0
2018-Feb-17 23:58N 47°38' W 122°20'0 0.0
2018-Feb-17 23:28N 47°38' W 122°20'0 0.0
2018-Feb-17 22:58N 47°38' W 122°20'0 0.0
2018-Feb-17 22:28N 47°38' W 122°20'0 0.0
2018-Feb-17 21:58N 47°38' W 122°20'0 0.0
2018-Feb-17 21:28N 47°38' W 122°20'0 0.0
2018-Feb-17 20:58N 47°38' W 122°20'0 0.0
2018-Feb-17 20:25N 47°38' W 122°20'0 0.0
2018-Feb-17 19:55N 47°38' W 122°20'0 0.0
2018-Feb-17 19:28N 47°38' W 122°20'0 0.0
2018-Feb-17 18:58N 47°38' W 122°20'0 0.0
2018-Feb-17 18:28N 47°38' W 122°20'0 0.0
2018-Feb-17 17:58N 47°38' W 122°20'0 0.0
2018-Feb-17 17:28N 47°38' W 122°20'0 0.0
2018-Feb-17 16:58N 47°38' W 122°20'0 0.0
2018-Feb-17 16:28N 47°38' W 122°20'0 0.0
2018-Feb-17 15:58N 47°38' W 122°20'0 0.0
2018-Feb-17 15:28N 47°38' W 122°20'0 0.0
2018-Feb-17 14:55N 47°38' W 122°20'0 0.0
2018-Feb-17 14:28N 47°38' W 122°20'0 0.0
2018-Feb-17 13:58N 47°38' W 122°20'0 0.0
2018-Feb-17 13:28N 47°38' W 122°20'0 0.0
2018-Feb-17 12:58N 47°38' W 122°20'0 0.0
2018-Feb-17 12:28N 47°38' W 122°20'0 0.0
2018-Feb-17 11:58N 47°38' W 122°20'0 0.0
2018-Feb-17 11:28N 47°38' W 122°20'0 0.0
2018-Feb-17 10:58N 47°38' W 122°20'0 0.0
2018-Feb-17 10:25N 47°38' W 122°20'0 0.0
2018-Feb-17 09:58N 47°38' W 122°20'0 0.0
2018-Feb-17 09:25N 47°38' W 122°20'0 0.0
2018-Feb-17 08:55N 47°38' W 122°20'0 0.0
2018-Feb-17 08:28N 47°38' W 122°20'0 0.0
2018-Feb-17 07:58N 47°38' W 122°20'0 0.0
2018-Feb-17 07:28N 47°38' W 122°20'0 0.0
2018-Feb-17 06:58N 47°38' W 122°20'0 0.0
2018-Feb-17 06:28N 47°38' W 122°20'0 0.0
2018-Feb-17 05:58N 47°38' W 122°20'0 0.0
2018-Feb-17 05:28N 47°38' W 122°20'0 0.0
2018-Feb-17 04:58N 47°38' W 122°20'0 0.0
2018-Feb-17 04:28N 47°38' W 122°20'0 0.0
2018-Feb-17 03:55N 47°38' W 122°20'0 0.0
2018-Feb-17 03:28N 47°38' W 122°20'0 0.0
2018-Feb-17 02:58N 47°38' W 122°20'0 0.0
2018-Feb-17 02:28N 47°38' W 122°20'0 0.0
2018-Feb-17 01:58N 47°38' W 122°20'0 0.0
2018-Feb-17 01:28N 47°38' W 122°20'0 0.0
2018-Feb-17 00:58N 47°38' W 122°20'0 0.0
2018-Feb-17 00:25N 47°38' W 122°20'0 0.0
2018-Feb-16 23:58N 47°38' W 122°20'0 0.0
2018-Feb-16 23:28N 47°38' W 122°20'0 0.0
2018-Feb-16 22:55N 47°38' W 122°20'0 0.0
2018-Feb-16 22:25N 47°38' W 122°20'0 0.0
2018-Feb-16 21:58N 47°38' W 122°20'0 0.0
2018-Feb-16 21:28N 47°38' W 122°20'0 0.0
2018-Feb-16 20:58N 47°38' W 122°20'0 0.0
2018-Feb-16 20:28N 47°38' W 122°20'0 0.0
2018-Feb-16 19:58N 47°38' W 122°20'0 0.0
2018-Feb-16 19:25N 47°38' W 122°20'0 0.0
2018-Feb-16 18:55N 47°38' W 122°20'0 0.0
2018-Feb-16 18:28N 47°38' W 122°20'0 0.0
2018-Feb-16 17:40N 47°38' W 122°20'0 0.0
2018-Feb-16 17:25N 47°38' W 122°20'0 0.0
2018-Feb-16 16:55N 47°38' W 122°20'0 0.0
2018-Feb-16 16:25N 47°38' W 122°20'0 0.0
2018-Feb-16 15:58N 47°38' W 122°20'0 0.0
2018-Feb-16 15:28N 47°38' W 122°20'0 0.0
2018-Feb-16 14:55N 47°38' W 122°20'0 0.0
2018-Feb-16 14:28N 47°38' W 122°20'0 0.0
2018-Feb-16 13:58N 47°38' W 122°20'0 0.0
2018-Feb-16 13:28N 47°38' W 122°20'0 0.0
2018-Feb-16 12:58N 47°38' W 122°20'0 0.0
2018-Feb-16 12:28N 47°38' W 122°20'0 0.0
2018-Feb-16 11:58N 47°38' W 122°20'0 0.0
2018-Feb-16 11:28N 47°38' W 122°20'0 0.0
2018-Feb-16 10:55N 47°38' W 122°20'0 0.0
2018-Feb-16 10:28N 47°38' W 122°20'0 0.0
2018-Feb-16 09:58N 47°38' W 122°20'0 0.0
2018-Feb-16 09:28N 47°38' W 122°20'0 0.0
2018-Feb-16 08:49N 47°38' W 122°20'0 0.0
2018-Feb-16 08:28N 47°38' W 122°20'0 0.0
2018-Feb-16 07:55N 47°38' W 122°20'0 0.0
2018-Feb-16 07:25N 47°38' W 122°20'0 0.0
2018-Feb-16 06:58N 47°38' W 122°20'0 0.0
2018-Feb-16 06:28N 47°38' W 122°20'0 0.0
2018-Feb-16 05:58N 47°38' W 122°20'0 0.0
2018-Feb-16 05:28N 47°38' W 122°20'0 0.0
2018-Feb-16 04:49N 47°38' W 122°20'0 0.0
2018-Feb-16 04:28N 47°38' W 122°20'0 0.0
2018-Feb-16 03:58N 47°38' W 122°20'0 0.0
2018-Feb-16 03:28N 47°38' W 122°20'1 1.9
2018-Feb-16 03:00N 47°39' W 122°21'3 5.1
2018-Feb-16 02:31N 47°40' W 122°24'2 3.5
2018-Feb-16 02:01N 47°41' W 122°25'4 7.4
2018-Feb-16 01:30N 47°45' W 122°26'4 7.2
2018-Feb-16 01:01N 47°49' W 122°28'4 7.7
2018-Feb-16 00:30N 47°52' W 122°29'4 7.2
2018-Feb-16 00:00N 47°55' W 122°31'26 7.8
2018-Feb-15 20:40N 48°20' W 122°47'1 7.7
2018-Feb-15 20:29N 48°21' W 122°47'4 7.5
2018-Feb-15 20:00N 48°24' W 122°45'  

Dump ship's entire track history